createdAt,value
2023-03-16T00:01:07.078Z,8.80
2023-03-16T00:03:53.141Z,8.70
2023-03-16T00:06:38.317Z,8.70
2023-03-16T00:09:30.961Z,8.40
2023-03-16T00:12:17.667Z,8.50
2023-03-16T00:15:04.596Z,8.50
2023-03-16T00:29:01.801Z,8.50
2023-03-16T00:42:55.123Z,8.40
2023-03-16T00:51:20.000Z,8.20
2023-03-16T00:54:05.828Z,8.10
2023-03-16T00:56:51.349Z,8.00
2023-03-16T01:02:24.655Z,8.20
2023-03-16T01:05:10.123Z,8.10
2023-03-16T01:07:55.624Z,7.90
2023-03-16T01:10:41.684Z,8.00
2023-03-16T01:13:27.459Z,8.00
2023-03-16T01:16:13.128Z,7.70
2023-03-16T01:18:58.910Z,7.90
2023-03-16T01:21:44.318Z,7.80
2023-03-16T01:24:30.120Z,7.80
2023-03-16T01:27:15.619Z,7.90
2023-03-16T01:30:02.491Z,7.70
2023-03-16T01:32:48.796Z,7.70
2023-03-16T01:35:35.059Z,7.70
2023-03-16T01:38:21.727Z,7.70
2023-03-16T01:41:07.306Z,7.70
2023-03-16T01:43:53.782Z,7.70
2023-03-16T01:46:39.448Z,7.80
2023-03-16T01:49:26.790Z,7.70
2023-03-16T01:52:14.774Z,7.70
2023-03-16T01:55:02.764Z,7.70
2023-03-16T01:57:48.086Z,7.70
2023-03-16T02:00:33.926Z,7.60
2023-03-16T02:03:30.068Z,7.50
2023-03-16T02:06:24.281Z,7.60
2023-03-16T02:09:13.594Z,7.60
2023-03-16T02:11:59.644Z,7.50
2023-03-16T02:14:46.874Z,7.60
2023-03-16T02:17:34.034Z,7.50
2023-03-16T02:20:24.050Z,7.50
2023-03-16T02:23:18.604Z,7.50
2023-03-16T02:26:12.589Z,7.30
2023-03-16T02:29:10.157Z,7.60
2023-03-16T02:31:59.028Z,7.70
2023-03-16T02:34:44.692Z,7.50
2023-03-16T02:37:35.972Z,7.60
2023-03-16T02:40:27.210Z,7.40
2023-03-16T02:43:20.636Z,7.60
2023-03-16T02:46:23.609Z,7.60
2023-03-16T02:49:26.213Z,7.80
2023-03-16T02:52:12.116Z,7.70
2023-03-16T02:54:57.896Z,7.80
2023-03-16T02:57:43.505Z,7.80
2023-03-16T03:00:33.129Z,8.10
2023-03-16T03:03:18.997Z,8.00
2023-03-16T03:06:05.090Z,7.80
2023-03-16T03:08:53.931Z,7.90
2023-03-16T03:11:40.284Z,7.90
2023-03-16T03:14:25.590Z,7.90
2023-03-16T03:17:13.318Z,7.90
2023-03-16T03:19:59.917Z,8.00
2023-03-16T03:22:46.689Z,8.00
2023-03-16T03:25:34.978Z,7.80
2023-03-16T03:28:22.222Z,7.60
2023-03-16T03:31:16.517Z,7.40
2023-03-16T03:34:06.627Z,7.50
2023-03-16T03:36:54.223Z,7.60
2023-03-16T03:39:40.420Z,7.60
2023-03-16T03:42:26.379Z,7.70
2023-03-16T03:45:15.519Z,7.80
2023-03-16T03:48:01.126Z,7.90
2023-03-16T03:50:46.819Z,7.90
2023-03-16T03:53:38.081Z,7.80
2023-03-16T03:56:55.810Z,8.10
2023-03-16T03:59:43.838Z,8.00
2023-03-16T04:02:52.468Z,7.90
2023-03-16T04:05:45.709Z,7.80
2023-03-16T04:08:31.428Z,7.80
2023-03-16T04:11:18.281Z,8.00
2023-03-16T04:14:04.381Z,7.90
2023-03-16T04:16:49.946Z,7.90
2023-03-16T04:19:35.916Z,7.90
2023-03-16T04:22:23.684Z,8.00
2023-03-16T04:25:11.558Z,8.00
2023-03-16T04:27:58.286Z,7.90
2023-03-16T04:30:47.743Z,7.70
2023-03-16T04:33:38.496Z,7.80
2023-03-16T04:36:24.317Z,8.00
2023-03-16T04:39:10.665Z,8.10
2023-03-16T04:41:56.113Z,8.10
2023-03-16T04:44:45.127Z,7.90
2023-03-16T04:47:33.984Z,8.10
2023-03-16T04:50:19.482Z,8.10
2023-03-16T04:53:09.670Z,8.30
2023-03-16T04:55:55.068Z,8.40
2023-03-16T04:58:40.896Z,8.30
2023-03-16T05:01:26.586Z,8.30
2023-03-16T05:04:19.583Z,8.40
2023-03-16T05:07:06.733Z,8.50
2023-03-16T05:09:56.386Z,8.30
2023-03-16T05:12:42.353Z,8.20
2023-03-16T05:15:28.273Z,7.90
2023-03-16T05:18:33.593Z,7.90
2023-03-16T05:21:19.217Z,7.80
2023-03-16T05:24:12.338Z,7.90
2023-03-16T05:26:58.485Z,7.90
2023-03-16T05:29:48.154Z,7.90
2023-03-16T05:32:34.144Z,7.80
2023-03-16T05:35:19.798Z,7.80
2023-03-16T05:38:05.703Z,7.70
2023-03-16T05:40:54.577Z,7.50
2023-03-16T05:43:59.204Z,7.50
2023-03-16T05:46:51.503Z,7.40
2023-03-16T05:49:37.697Z,7.60
2023-03-16T05:52:28.210Z,7.70
2023-03-16T05:55:18.856Z,7.50
2023-03-16T05:58:09.768Z,7.60
2023-03-16T06:00:59.515Z,7.70
2023-03-16T06:03:48.953Z,7.70
2023-03-16T06:06:38.772Z,7.60
2023-03-16T06:09:30.715Z,7.60
2023-03-16T06:12:16.655Z,8.00
2023-03-16T06:15:02.793Z,8.60
2023-03-16T06:17:49.089Z,9.20
2023-03-16T06:20:35.520Z,9.70
2023-03-16T06:23:21.832Z,10.20
2023-03-16T06:26:08.145Z,10.50
2023-03-16T06:28:55.838Z,10.80
2023-03-16T06:31:42.091Z,11.00
2023-03-16T06:34:28.849Z,11.20
2023-03-16T06:37:15.523Z,11.40
2023-03-16T06:40:01.468Z,13.50
2023-03-16T06:42:48.238Z,11.60
2023-03-16T06:45:36.647Z,11.70
2023-03-16T06:48:22.278Z,11.70
2023-03-16T06:51:08.128Z,11.80
2023-03-16T06:53:54.960Z,11.90
2023-03-16T06:56:40.823Z,11.90
2023-03-16T06:59:26.174Z,12.00
2023-03-16T07:02:15.340Z,12.00
2023-03-16T07:05:01.480Z,12.10
2023-03-16T07:07:47.603Z,12.20
2023-03-16T07:10:32.894Z,12.20
2023-03-16T07:13:18.613Z,12.30
2023-03-16T07:16:05.026Z,12.30
2023-03-16T07:18:52.302Z,12.40
2023-03-16T07:21:41.976Z,12.50
2023-03-16T07:24:32.784Z,12.50
2023-03-16T07:27:18.629Z,12.50
2023-03-16T07:30:05.559Z,12.50
2023-03-16T07:32:53.682Z,12.60
2023-03-16T07:35:41.526Z,12.60
2023-03-16T07:38:27.554Z,12.60
2023-03-16T07:41:14.044Z,12.70
2023-03-16T07:44:00.311Z,12.70
2023-03-16T07:46:45.892Z,12.70
2023-03-16T07:49:31.652Z,12.70
2023-03-16T07:52:19.473Z,12.70
2023-03-16T07:55:07.379Z,12.80
2023-03-16T07:57:53.772Z,12.80
2023-03-16T08:00:46.493Z,12.80
2023-03-16T08:03:32.346Z,12.80
2023-03-16T08:06:17.861Z,12.90
2023-03-16T08:09:03.873Z,12.90
2023-03-16T08:11:53.770Z,13.00
2023-03-16T08:14:39.553Z,13.00
2023-03-16T08:17:31.618Z,13.10
2023-03-16T08:20:19.481Z,13.10
2023-03-16T08:23:06.426Z,13.10
2023-03-16T08:25:58.608Z,13.20
2023-03-16T08:28:46.477Z,13.20
2023-03-16T08:31:35.175Z,13.20
2023-03-16T08:34:31.868Z,13.30
2023-03-16T08:37:17.665Z,13.30
2023-03-16T08:40:10.374Z,13.30
2023-03-16T08:42:57.023Z,13.40
2023-03-16T08:45:45.114Z,13.40
2023-03-16T08:48:33.385Z,13.40
2023-03-16T08:51:19.479Z,13.40
2023-03-16T08:54:04.998Z,13.40
2023-03-16T08:56:51.816Z,13.40
2023-03-16T08:59:37.301Z,9.50
2023-03-16T09:02:23.038Z,13.50
2023-03-16T09:05:10.116Z,13.50
2023-03-16T09:07:55.983Z,13.50
2023-03-16T09:10:41.702Z,13.50
2023-03-16T09:13:27.646Z,13.60
2023-03-16T09:16:14.020Z,13.70
2023-03-16T09:18:59.464Z,13.70
2023-03-16T09:21:47.365Z,13.80
2023-03-16T09:24:33.157Z,13.80
2023-03-16T09:27:18.771Z,13.90
2023-03-16T09:30:05.534Z,14.00
2023-03-16T09:32:52.316Z,14.00
2023-03-16T09:35:38.184Z,14.00
2023-03-16T09:38:26.402Z,13.90
2023-03-16T09:41:44.637Z,13.90
2023-03-16T09:44:30.733Z,14.00
2023-03-16T09:47:18.387Z,14.10
2023-03-16T09:50:06.502Z,14.10
2023-03-16T09:52:52.073Z,14.20
2023-03-16T09:55:56.398Z,14.20
2023-03-16T09:58:42.292Z,14.20
2023-03-16T10:02:07.799Z,14.10
2023-03-16T10:05:07.813Z,14.20
2023-03-16T10:08:05.359Z,14.10
2023-03-16T10:11:15.045Z,14.10
2023-03-16T10:14:03.264Z,14.20
2023-03-16T10:16:50.581Z,14.20
2023-03-16T10:19:42.323Z,14.20
2023-03-16T10:22:31.265Z,14.30
2023-03-16T10:25:19.598Z,14.30
2023-03-16T10:28:05.425Z,14.30
2023-03-16T10:30:51.881Z,14.40
2023-03-16T10:33:37.666Z,14.40
2023-03-16T10:36:26.473Z,14.40
2023-03-16T10:39:13.527Z,14.50
2023-03-16T10:41:59.187Z,14.40
2023-03-16T10:44:45.206Z,14.40
2023-03-16T10:47:31.925Z,14.50
2023-03-16T10:50:23.697Z,14.40
2023-03-16T10:53:18.580Z,14.50
2023-03-16T10:56:20.090Z,14.50
2023-03-16T10:59:16.015Z,14.60
2023-03-16T11:02:02.628Z,14.60
2023-03-16T11:04:48.250Z,14.60
2023-03-16T11:07:36.238Z,14.60
2023-03-16T11:10:28.117Z,14.60
2023-03-16T11:13:18.143Z,14.70
2023-03-16T11:16:18.932Z,14.70
2023-03-16T11:19:23.323Z,14.70
2023-03-16T11:22:13.218Z,14.80
2023-03-16T11:25:08.093Z,14.80
2023-03-16T11:27:56.577Z,14.90
2023-03-16T11:30:51.873Z,14.90
2023-03-16T11:33:38.059Z,14.90
2023-03-16T11:36:39.656Z,14.80
2023-03-16T11:39:28.394Z,14.80
2023-03-16T11:42:23.250Z,14.80
2023-03-16T11:45:15.301Z,14.80
2023-03-16T11:48:01.164Z,14.80
2023-03-16T11:50:49.887Z,12.40
2023-03-16T11:53:54.636Z,14.80
2023-03-16T11:56:45.130Z,14.80
2023-03-16T11:59:49.018Z,14.90
2023-03-16T12:02:56.511Z,14.90
2023-03-16T12:05:45.155Z,15.00
2023-03-16T12:08:43.682Z,14.90
2023-03-16T12:11:52.615Z,14.90
2023-03-16T12:14:46.917Z,14.90
2023-03-16T12:17:33.349Z,14.90
2023-03-16T12:20:23.271Z,14.90
2023-03-16T12:23:22.800Z,15.00
2023-03-16T12:26:09.091Z,14.90
2023-03-16T12:28:55.399Z,15.00
2023-03-16T12:31:56.006Z,15.00
2023-03-16T12:34:47.525Z,15.00
2023-03-16T12:37:41.469Z,15.00
2023-03-16T12:40:46.445Z,15.00
2023-03-16T12:43:39.639Z,15.00
2023-03-16T12:46:29.114Z,15.00
2023-03-16T12:49:14.995Z,15.10
2023-03-16T12:52:01.659Z,15.20
2023-03-16T12:55:07.152Z,15.30
2023-03-16T12:57:59.265Z,15.40
2023-03-16T13:00:56.628Z,15.50
2023-03-16T13:03:43.285Z,15.50
2023-03-16T13:06:32.303Z,15.60
2023-03-16T13:09:25.369Z,15.60
2023-03-16T13:12:22.278Z,15.60
2023-03-16T13:15:34.762Z,15.50
2023-03-16T13:18:22.585Z,15.50
2023-03-16T13:21:16.458Z,15.50
2023-03-16T13:24:21.646Z,15.50
2023-03-16T13:27:15.823Z,15.50
2023-03-16T13:30:03.537Z,15.60
2023-03-16T13:32:53.144Z,15.60
2023-03-16T13:35:39.657Z,15.60
2023-03-16T13:38:27.579Z,15.60
2023-03-16T13:41:14.490Z,15.60
2023-03-16T13:44:00.687Z,15.60
2023-03-16T13:46:48.121Z,15.70
2023-03-16T13:49:34.287Z,15.70
2023-03-16T13:52:28.230Z,15.50
2023-03-16T13:55:18.414Z,15.70
2023-03-16T13:58:04.369Z,15.80
2023-03-16T14:00:49.703Z,15.80
2023-03-16T14:03:37.105Z,15.90
2023-03-16T14:06:25.266Z,15.90
2023-03-16T14:09:17.470Z,15.90
2023-03-16T14:12:03.739Z,15.90
2023-03-16T14:14:50.707Z,15.80
2023-03-16T14:17:36.370Z,15.90
2023-03-16T14:20:24.091Z,15.90
2023-03-16T14:23:28.518Z,15.80
2023-03-16T14:26:16.062Z,15.80
2023-03-16T14:29:03.146Z,15.80
2023-03-16T14:31:48.705Z,15.80
2023-03-16T14:34:41.354Z,15.80
2023-03-16T14:37:34.421Z,15.80
2023-03-16T14:40:30.867Z,15.80
2023-03-16T14:43:16.292Z,15.80
2023-03-16T14:46:04.967Z,15.80
2023-03-16T14:48:50.618Z,15.70
2023-03-16T14:51:37.731Z,15.70
2023-03-16T14:54:23.169Z,15.70
2023-03-16T14:57:15.681Z,15.70
2023-03-16T15:00:01.331Z,15.70
2023-03-16T15:02:59.283Z,15.70
2023-03-16T15:05:50.332Z,15.80
2023-03-16T15:08:43.474Z,15.80
2023-03-16T15:11:29.560Z,15.90
2023-03-16T15:14:35.165Z,16.00
2023-03-16T15:17:20.807Z,16.10
2023-03-16T15:20:07.193Z,16.10
2023-03-16T15:22:53.054Z,16.20
2023-03-16T15:25:40.666Z,16.20
2023-03-16T15:28:27.114Z,16.20
2023-03-16T15:31:14.454Z,16.20
2023-03-16T15:33:59.742Z,16.20
2023-03-16T15:36:45.451Z,16.20
2023-03-16T15:39:30.929Z,16.20
2023-03-16T15:42:18.037Z,16.20
2023-03-16T15:45:07.425Z,16.30
2023-03-16T15:47:53.673Z,16.30
2023-03-16T15:50:40.926Z,16.30
2023-03-16T15:53:31.267Z,16.40
2023-03-16T15:56:21.196Z,16.50
2023-03-16T15:59:06.818Z,16.50
2023-03-16T16:01:52.946Z,16.50
2023-03-16T16:04:38.552Z,16.60
2023-03-16T16:07:24.465Z,16.50
2023-03-16T16:10:12.858Z,16.50
2023-03-16T16:12:59.026Z,16.50
2023-03-16T16:15:45.364Z,16.50
2023-03-16T16:18:36.551Z,16.50
2023-03-16T16:21:24.528Z,16.50
2023-03-16T16:24:10.713Z,16.50
2023-03-16T16:26:56.701Z,16.50
2023-03-16T16:29:42.363Z,16.50
2023-03-16T16:32:27.770Z,16.40
2023-03-16T16:35:17.673Z,16.40
2023-03-16T16:38:03.119Z,16.30
2023-03-16T16:40:48.828Z,16.30
2023-03-16T16:43:38.842Z,16.20
2023-03-16T16:46:25.853Z,16.20
2023-03-16T16:49:16.397Z,16.20
2023-03-16T16:52:02.320Z,16.20
2023-03-16T16:54:47.954Z,16.20
2023-03-16T16:57:33.461Z,16.20
2023-03-16T17:00:23.793Z,16.20
2023-03-16T17:03:20.492Z,16.20
2023-03-16T17:06:05.755Z,16.20
2023-03-16T17:08:52.382Z,16.10
2023-03-16T17:11:37.844Z,16.10
2023-03-16T17:14:24.074Z,16.10
2023-03-16T17:17:13.366Z,16.20
2023-03-16T17:19:58.760Z,16.20
2023-03-16T17:22:45.792Z,16.20
2023-03-16T17:25:32.535Z,16.20
2023-03-16T17:28:18.537Z,16.20
2023-03-16T17:31:04.445Z,16.20
2023-03-16T17:33:52.332Z,16.10
2023-03-16T17:36:37.798Z,16.10
2023-03-16T17:39:23.575Z,16.10
2023-03-16T17:42:13.961Z,16.10
2023-03-16T17:45:00.019Z,16.10
2023-03-16T17:47:46.210Z,16.20
2023-03-16T17:50:34.015Z,16.10
2023-03-16T17:53:19.936Z,16.00
2023-03-16T17:56:12.106Z,16.00
2023-03-16T17:58:57.630Z,16.00
2023-03-16T18:01:44.001Z,16.00
2023-03-16T18:04:29.692Z,16.00
2023-03-16T18:07:15.346Z,15.90
2023-03-16T18:10:01.156Z,15.90
2023-03-16T18:12:47.087Z,15.90
2023-03-16T18:15:33.933Z,15.90
2023-03-16T18:18:21.412Z,15.90
2023-03-16T18:21:06.885Z,15.90
2023-03-16T18:23:53.754Z,15.80
2023-03-16T18:26:39.825Z,15.80
2023-03-16T18:29:25.177Z,15.70
2023-03-16T18:32:31.204Z,15.70
2023-03-16T18:35:17.970Z,15.70
2023-03-16T18:38:03.630Z,15.70
2023-03-16T18:40:49.424Z,15.70
2023-03-16T18:43:34.823Z,15.60
2023-03-16T18:46:26.609Z,15.60
2023-03-16T18:49:18.885Z,13.20
2023-03-16T18:52:12.632Z,15.50
2023-03-16T18:54:58.448Z,15.50
2023-03-16T18:57:46.594Z,15.30
2023-03-16T19:00:32.133Z,15.40
2023-03-16T19:03:28.135Z,15.40
2023-03-16T19:06:19.272Z,15.40
2023-03-16T19:09:08.857Z,15.30
2023-03-16T19:11:54.414Z,15.30
2023-03-16T19:14:40.057Z,15.40
2023-03-16T19:17:25.986Z,15.40
2023-03-16T19:20:13.835Z,15.40
2023-03-16T19:23:23.621Z,15.40
2023-03-16T19:26:09.461Z,15.40
2023-03-16T19:28:54.979Z,15.60
2023-03-16T19:31:40.736Z,15.60
2023-03-16T19:34:26.578Z,15.60
2023-03-16T19:37:14.759Z,15.60
2023-03-16T19:40:00.480Z,15.60
2023-03-16T19:42:46.619Z,15.60
2023-03-16T19:45:35.853Z,15.50
2023-03-16T19:48:28.003Z,15.50
2023-03-16T19:51:14.710Z,15.50
2023-03-16T19:54:01.347Z,15.50
2023-03-16T19:56:47.100Z,15.60
2023-03-16T19:59:33.730Z,15.60
2023-03-16T20:02:25.295Z,15.70
2023-03-16T20:05:15.354Z,15.70
2023-03-16T20:08:01.392Z,15.70
2023-03-16T20:10:47.993Z,15.70
2023-03-16T20:13:34.339Z,15.70
2023-03-16T20:16:24.023Z,15.70
2023-03-16T20:19:14.828Z,15.70
2023-03-16T20:22:01.286Z,15.70
2023-03-16T20:24:49.415Z,15.80
2023-03-16T20:27:35.532Z,15.80
2023-03-16T20:30:21.333Z,15.80
2023-03-16T20:33:11.578Z,15.90
2023-03-16T20:35:57.037Z,15.90
2023-03-16T20:38:42.839Z,15.80
2023-03-16T20:41:29.591Z,15.90
2023-03-16T20:44:18.002Z,16.00
2023-03-16T20:47:03.552Z,15.90
2023-03-16T20:49:50.619Z,15.90
2023-03-16T20:52:36.854Z,15.80
2023-03-16T20:55:27.087Z,15.80
2023-03-16T20:58:24.457Z,15.80
2023-03-16T21:01:17.435Z,15.80
2023-03-16T21:04:03.539Z,15.80
2023-03-16T21:06:50.808Z,15.80
2023-03-16T21:09:36.219Z,15.90
2023-03-16T21:12:27.129Z,15.80
2023-03-16T21:15:17.762Z,15.70
2023-03-16T21:18:04.743Z,15.70
2023-03-16T21:20:51.713Z,15.60
2023-03-16T21:23:37.314Z,15.50
2023-03-16T21:26:24.185Z,15.40
2023-03-16T21:29:15.764Z,15.30
2023-03-16T21:32:01.146Z,15.30
2023-03-16T21:34:47.429Z,15.30
2023-03-16T21:37:33.046Z,15.20
2023-03-16T21:40:19.419Z,15.20
2023-03-16T21:43:04.801Z,15.20
2023-03-16T21:45:54.033Z,15.20
2023-03-16T21:48:40.251Z,15.10
2023-03-16T21:51:29.004Z,15.10
2023-03-16T21:54:15.463Z,15.10
2023-03-16T21:57:00.798Z,15.10
2023-03-16T21:59:47.111Z,14.80
2023-03-16T22:02:32.692Z,14.20
2023-03-16T22:05:27.587Z,13.90
2023-03-16T22:08:16.046Z,13.60
2023-03-16T22:11:02.027Z,13.50
2023-03-16T22:13:47.863Z,13.40
2023-03-16T22:16:36.076Z,13.30
2023-03-16T22:19:22.275Z,13.20
2023-03-16T22:22:12.069Z,13.00
2023-03-16T22:24:57.430Z,13.00
2023-03-16T22:27:43.187Z,12.90
2023-03-16T22:30:28.776Z,12.90
2023-03-16T22:33:17.486Z,12.80
2023-03-16T22:36:11.747Z,12.80
2023-03-16T22:38:59.691Z,12.70
2023-03-16T22:41:45.414Z,12.70
2023-03-16T22:44:30.824Z,12.50
2023-03-16T22:47:26.649Z,12.50
2023-03-16T22:50:16.629Z,12.60
2023-03-16T22:53:04.282Z,12.50
2023-03-16T22:55:50.682Z,12.50
2023-03-16T22:58:39.176Z,12.30
2023-03-16T23:01:30.745Z,12.40
2023-03-16T23:04:20.958Z,12.40
2023-03-16T23:07:11.337Z,12.40
2023-03-16T23:09:56.872Z,12.40
2023-03-16T23:12:42.791Z,12.50
2023-03-16T23:15:29.948Z,12.50
2023-03-16T23:18:26.036Z,12.50
2023-03-16T23:21:13.733Z,12.40
2023-03-16T23:24:04.070Z,12.50
2023-03-16T23:26:51.070Z,12.50
2023-03-16T23:29:36.605Z,12.50
2023-03-16T23:32:22.233Z,12.50
2023-03-16T23:35:19.997Z,12.60
2023-03-16T23:38:05.816Z,12.60
2023-03-16T23:40:51.073Z,11.10
2023-03-16T23:43:37.503Z,12.60
2023-03-16T23:46:23.736Z,12.50
2023-03-16T23:49:13.782Z,12.40
2023-03-16T23:52:00.707Z,12.40
2023-03-16T23:54:46.143Z,12.40
2023-03-16T23:57:31.755Z,12.50
